Burton, United Kingdom
Current Conditions -  °F | °C
As of 5:50 AM on Wednesday 28 Jan 2015 (Local Time) from EGXP Reporting Station
Overcast Overcast  
Wind Chill: 35°   Ceiling: 1500
Heat Index: 45°   Visibility: 6mi
Dew Point: 43°   Wind: 25mph
Humidity: 93%   Direction: 220°SW
Pressure: 29.56"   Gusts: NA
Location:  53.27°N, 0.57°W
Report Text: EGXP 280550Z AUTO 22022KT 9999 // BKN015/// OVC080/// 07/06 Q1001
Loading
Personal Weather Stations






























Interactive Weather Map New forecast layout! Learn more

10-Day Weather Forecast

Advertisements
Track Severe Weather on mobile